sensor_id;sensor_type;location;lat;lon;timestamp;P1;durP1;ratioP1;P2;durP2;ratioP2
2618;SDS011;1319;52.346;13.096;2023-11-18T00:01:16;10.93;;;7.00;;
2618;SDS011;1319;52.346;13.096;2023-11-18T00:03:41;12.30;;;7.40;;
2618;SDS011;1319;52.346;13.096;2023-11-18T00:06:07;11.57;;;7.83;;
2618;SDS011;1319;52.346;13.096;2023-11-18T00:08:33;11.63;;;7.30;;
2618;SDS011;1319;52.346;13.096;2023-11-18T00:10:58;10.53;;;7.30;;
2618;SDS011;1319;52.346;13.096;2023-11-18T00:13:23;11.90;;;7.57;;
2618;SDS011;1319;52.346;13.096;2023-11-18T00:15:48;11.57;;;7.57;;
2618;SDS011;1319;52.346;13.096;2023-11-18T00:18:13;15.13;;;8.30;;
2618;SDS011;1319;52.346;13.096;2023-11-18T00:20:39;15.87;;;8.67;;
2618;SDS011;1319;52.346;13.096;2023-11-18T00:23:04;11.90;;;7.43;;
2618;SDS011;1319;52.346;13.096;2023-11-18T00:25:29;13.07;;;7.87;;
2618;SDS011;1319;52.346;13.096;2023-11-18T00:27:55;15.97;;;8.77;;
2618;SDS011;1319;52.346;13.096;2023-11-18T00:30:20;18.73;;;8.10;;
2618;SDS011;1319;52.346;13.096;2023-11-18T00:32:45;16.23;;;8.40;;
2618;SDS011;1319;52.346;13.096;2023-11-18T00:35:10;12.60;;;8.47;;
2618;SDS011;1319;52.346;13.096;2023-11-18T00:37:36;14.80;;;9.07;;
2618;SDS011;1319;52.346;13.096;2023-11-18T00:40:01;15.53;;;9.30;;
2618;SDS011;1319;52.346;13.096;2023-11-18T00:42:26;14.57;;;9.00;;
2618;SDS011;1319;52.346;13.096;2023-11-18T00:44:51;15.53;;;9.13;;
2618;SDS011;1319;52.346;13.096;2023-11-18T00:47:17;15.23;;;9.20;;
2618;SDS011;1319;52.346;13.096;2023-11-18T00:49:43;14.97;;;9.03;;
2618;SDS011;1319;52.346;13.096;2023-11-18T00:52:08;17.03;;;9.73;;
2618;SDS011;1319;52.346;13.096;2023-11-18T00:54:34;15.17;;;8.77;;
2618;SDS011;1319;52.346;13.096;2023-11-18T00:56:59;13.53;;;8.53;;
2618;SDS011;1319;52.346;13.096;2023-11-18T00:59:25;18.27;;;9.63;;
2618;SDS011;1319;52.346;13.096;2023-11-18T01:01:51;14.57;;;8.90;;
2618;SDS011;1319;52.346;13.096;2023-11-18T01:04:17;14.00;;;8.87;;
2618;SDS011;1319;52.346;13.096;2023-11-18T01:06:43;14.20;;;8.87;;
2618;SDS011;1319;52.346;13.096;2023-11-18T01:09:08;15.17;;;9.30;;
2618;SDS011;1319;52.346;13.096;2023-11-18T01:11:34;17.07;;;9.37;;
2618;SDS011;1319;52.346;13.096;2023-11-18T01:14:00;15.00;;;8.43;;
2618;SDS011;1319;52.346;13.096;2023-11-18T01:16:26;16.27;;;8.83;;
2618;SDS011;1319;52.346;13.096;2023-11-18T01:18:53;15.87;;;8.60;;
2618;SDS011;1319;52.346;13.096;2023-11-18T01:21:19;15.70;;;9.57;;
2618;SDS011;1319;52.346;13.096;2023-11-18T01:23:44;16.63;;;9.83;;
2618;SDS011;1319;52.346;13.096;2023-11-18T01:26:10;15.80;;;9.70;;
2618;SDS011;1319;52.346;13.096;2023-11-18T01:28:37;16.60;;;9.80;;
2618;SDS011;1319;52.346;13.096;2023-11-18T01:31:06;16.97;;;9.97;;
2618;SDS011;1319;52.346;13.096;2023-11-18T01:33:38;18.97;;;10.10;;
2618;SDS011;1319;52.346;13.096;2023-11-18T01:36:05;16.50;;;9.63;;
2618;SDS011;1319;52.346;13.096;2023-11-18T01:38:31;19.43;;;10.23;;
2618;SDS011;1319;52.346;13.096;2023-11-18T01:40:56;16.17;;;10.07;;
2618;SDS011;1319;52.346;13.096;2023-11-18T01:43:22;17.97;;;10.47;;
2618;SDS011;1319;52.346;13.096;2023-11-18T01:45:47;16.43;;;10.80;;
2618;SDS011;1319;52.346;13.096;2023-11-18T01:48:13;18.30;;;10.03;;
2618;SDS011;1319;52.346;13.096;2023-11-18T01:50:39;16.87;;;9.77;;
2618;SDS011;1319;52.346;13.096;2023-11-18T01:53:05;18.70;;;10.43;;
2618;SDS011;1319;52.346;13.096;2023-11-18T01:55:30;16.30;;;10.23;;
2618;SDS011;1319;52.346;13.096;2023-11-18T01:57:56;18.73;;;9.70;;
2618;SDS011;1319;52.346;13.096;2023-11-18T02:00:24;19.97;;;9.90;;
2618;SDS011;1319;52.346;13.096;2023-11-18T02:02:49;16.57;;;9.57;;
2618;SDS011;1319;52.346;13.096;2023-11-18T02:05:15;15.07;;;9.23;;
2618;SDS011;1319;52.346;13.096;2023-11-18T02:07:42;19.43;;;9.93;;
2618;SDS011;1319;52.346;13.096;2023-11-18T02:10:08;16.13;;;9.77;;
2618;SDS011;1319;52.346;13.096;2023-11-18T02:12:38;18.30;;;10.23;;
2618;SDS011;1319;52.346;13.096;2023-11-18T02:15:08;16.63;;;9.57;;
2618;SDS011;1319;52.346;13.096;2023-11-18T02:17:36;19.00;;;9.77;;
2618;SDS011;1319;52.346;13.096;2023-11-18T02:20:02;15.33;;;9.13;;
2618;SDS011;1319;52.346;13.096;2023-11-18T02:22:31;17.03;;;9.80;;
2618;SDS011;1319;52.346;13.096;2023-11-18T02:24:56;15.83;;;9.03;;
2618;SDS011;1319;52.346;13.096;2023-11-18T02:27:26;17.33;;;9.60;;
2618;SDS011;1319;52.346;13.096;2023-11-18T02:29:52;14.67;;;9.33;;
2618;SDS011;1319;52.346;13.096;2023-11-18T02:34:49;18.93;;;9.47;;
2618;SDS011;1319;52.346;13.096;2023-11-18T02:37:16;16.80;;;9.40;;
2618;SDS011;1319;52.346;13.096;2023-11-18T02:39:43;16.93;;;9.63;;
2618;SDS011;1319;52.346;13.096;2023-11-18T02:42:08;14.57;;;9.27;;
2618;SDS011;1319;52.346;13.096;2023-11-18T02:44:35;14.20;;;9.30;;
2618;SDS011;1319;52.346;13.096;2023-11-18T02:47:01;14.50;;;9.07;;
2618;SDS011;1319;52.346;13.096;2023-11-18T02:49:26;17.43;;;9.30;;
2618;SDS011;1319;52.346;13.096;2023-11-18T02:51:52;15.47;;;9.70;;
2618;SDS011;1319;52.346;13.096;2023-11-18T02:54:18;17.63;;;9.00;;
2618;SDS011;1319;52.346;13.096;2023-11-18T02:56:43;15.80;;;9.43;;
2618;SDS011;1319;52.346;13.096;2023-11-18T02:59:08;15.30;;;9.43;;
2618;SDS011;1319;52.346;13.096;2023-11-18T03:01:35;18.57;;;9.40;;
2618;SDS011;1319;52.346;13.096;2023-11-18T03:04:00;18.93;;;9.27;;
2618;SDS011;1319;52.346;13.096;2023-11-18T03:06:25;17.17;;;9.33;;
2618;SDS011;1319;52.346;13.096;2023-11-18T03:08:51;16.53;;;9.73;;
2618;SDS011;1319;52.346;13.096;2023-11-18T03:11:16;15.63;;;9.33;;
2618;SDS011;1319;52.346;13.096;2023-11-18T03:13:42;17.37;;;9.30;;
2618;SDS011;1319;52.346;13.096;2023-11-18T03:16:07;17.07;;;9.40;;
2618;SDS011;1319;52.346;13.096;2023-11-18T03:18:36;14.80;;;9.10;;
2618;SDS011;1319;52.346;13.096;2023-11-18T03:21:03;13.83;;;8.83;;
2618;SDS011;1319;52.346;13.096;2023-11-18T03:23:28;15.10;;;8.93;;
2618;SDS011;1319;52.346;13.096;2023-11-18T03:25:53;14.03;;;8.27;;
2618;SDS011;1319;52.346;13.096;2023-11-18T03:28:20;17.67;;;9.87;;
2618;SDS011;1319;52.346;13.096;2023-11-18T03:30:46;15.93;;;9.20;;
2618;SDS011;1319;52.346;13.096;2023-11-18T03:33:12;15.43;;;8.70;;
2618;SDS011;1319;52.346;13.096;2023-11-18T03:35:38;16.43;;;9.43;;
2618;SDS011;1319;52.346;13.096;2023-11-18T03:38:03;15.70;;;9.30;;
2618;SDS011;1319;52.346;13.096;2023-11-18T03:40:29;17.17;;;9.50;;
2618;SDS011;1319;52.346;13.096;2023-11-18T03:42:54;16.20;;;9.27;;
2618;SDS011;1319;52.346;13.096;2023-11-18T03:45:19;20.13;;;10.50;;
2618;SDS011;1319;52.346;13.096;2023-11-18T03:47:45;17.80;;;9.87;;
2618;SDS011;1319;52.346;13.096;2023-11-18T03:50:12;18.07;;;8.77;;
2618;SDS011;1319;52.346;13.096;2023-11-18T03:52:38;17.20;;;9.53;;
2618;SDS011;1319;52.346;13.096;2023-11-18T03:55:03;16.70;;;8.90;;
2618;SDS011;1319;52.346;13.096;2023-11-18T03:57:29;15.17;;;9.10;;
2618;SDS011;1319;52.346;13.096;2023-11-18T03:59:54;15.93;;;8.23;;
2618;SDS011;1319;52.346;13.096;2023-11-18T04:02:20;15.40;;;9.17;;
2618;SDS011;1319;52.346;13.096;2023-11-18T04:04:45;14.80;;;8.40;;
2618;SDS011;1319;52.346;13.096;2023-11-18T04:07:10;17.10;;;8.37;;
2618;SDS011;1319;52.346;13.096;2023-11-18T04:09:35;19.00;;;9.00;;
2618;SDS011;1319;52.346;13.096;2023-11-18T04:12:01;15.77;;;8.73;;
2618;SDS011;1319;52.346;13.096;2023-11-18T04:14:26;15.67;;;8.97;;
2618;SDS011;1319;52.346;13.096;2023-11-18T04:16:51;16.80;;;8.60;;
2618;SDS011;1319;52.346;13.096;2023-11-18T04:19:17;17.97;;;8.63;;
2618;SDS011;1319;52.346;13.096;2023-11-18T04:21:42;20.07;;;9.37;;
2618;SDS011;1319;52.346;13.096;2023-11-18T04:24:10;17.53;;;8.97;;
2618;SDS011;1319;52.346;13.096;2023-11-18T04:26:35;15.33;;;8.60;;
2618;SDS011;1319;52.346;13.096;2023-11-18T04:29:00;14.70;;;8.67;;
2618;SDS011;1319;52.346;13.096;2023-11-18T04:31:25;19.37;;;9.00;;
2618;SDS011;1319;52.346;13.096;2023-11-18T04:33:51;15.53;;;8.50;;
2618;SDS011;1319;52.346;13.096;2023-11-18T04:36:16;16.20;;;8.33;;
2618;SDS011;1319;52.346;13.096;2023-11-18T04:38:42;14.93;;;8.53;;
2618;SDS011;1319;52.346;13.096;2023-11-18T04:41:07;15.13;;;8.67;;
2618;SDS011;1319;52.346;13.096;2023-11-18T04:43:32;19.03;;;9.23;;
2618;SDS011;1319;52.346;13.096;2023-11-18T04:45:58;15.87;;;8.80;;
2618;SDS011;1319;52.346;13.096;2023-11-18T04:48:24;17.97;;;8.60;;
2618;SDS011;1319;52.346;13.096;2023-11-18T04:50:49;17.40;;;7.50;;
2618;SDS011;1319;52.346;13.096;2023-11-18T04:53:15;15.37;;;7.97;;
2618;SDS011;1319;52.346;13.096;2023-11-18T04:55:40;13.63;;;7.87;;
2618;SDS011;1319;52.346;13.096;2023-11-18T04:58:05;14.00;;;7.90;;
2618;SDS011;1319;52.346;13.096;2023-11-18T05:00:34;12.87;;;7.97;;
2618;SDS011;1319;52.346;13.096;2023-11-18T05:03:00;14.33;;;8.27;;
2618;SDS011;1319;52.346;13.096;2023-11-18T05:05:26;15.40;;;8.07;;
2618;SDS011;1319;52.346;13.096;2023-11-18T05:07:51;16.70;;;7.57;;
2618;SDS011;1319;52.346;13.096;2023-11-18T05:10:16;14.27;;;8.10;;
2618;SDS011;1319;52.346;13.096;2023-11-18T05:12:43;15.00;;;8.33;;
2618;SDS011;1319;52.346;13.096;2023-11-18T05:15:09;19.23;;;8.77;;
2618;SDS011;1319;52.346;13.096;2023-11-18T05:17:34;15.50;;;8.43;;
2618;SDS011;1319;52.346;13.096;2023-11-18T05:20:03;17.77;;;9.70;;
2618;SDS011;1319;52.346;13.096;2023-11-18T05:22:29;19.30;;;9.13;;
2618;SDS011;1319;52.346;13.096;2023-11-18T05:24:54;16.67;;;8.97;;
2618;SDS011;1319;52.346;13.096;2023-11-18T05:27:19;14.83;;;9.20;;
2618;SDS011;1319;52.346;13.096;2023-11-18T05:29:45;21.20;;;10.10;;
2618;SDS011;1319;52.346;13.096;2023-11-18T05:32:12;18.93;;;10.33;;
2618;SDS011;1319;52.346;13.096;2023-11-18T05:34:38;20.60;;;10.57;;
2618;SDS011;1319;52.346;13.096;2023-11-18T05:37:03;19.83;;;9.90;;
2618;SDS011;1319;52.346;13.096;2023-11-18T05:39:28;19.10;;;9.63;;
2618;SDS011;1319;52.346;13.096;2023-11-18T05:41:56;15.33;;;8.77;;
2618;SDS011;1319;52.346;13.096;2023-11-18T05:44:21;14.80;;;8.60;;
2618;SDS011;1319;52.346;13.096;2023-11-18T05:46:55;16.47;;;9.10;;
2618;SDS011;1319;52.346;13.096;2023-11-18T05:49:21;16.00;;;8.67;;
2618;SDS011;1319;52.346;13.096;2023-11-18T05:51:49;18.13;;;8.43;;
2618;SDS011;1319;52.346;13.096;2023-11-18T05:54:14;18.00;;;8.57;;
2618;SDS011;1319;52.346;13.096;2023-11-18T05:56:40;15.33;;;8.03;;
2618;SDS011;1319;52.346;13.096;2023-11-18T05:59:05;15.30;;;8.30;;
2618;SDS011;1319;52.346;13.096;2023-11-18T06:01:30;18.43;;;9.33;;
2618;SDS011;1319;52.346;13.096;2023-11-18T06:03:56;17.80;;;8.67;;
2618;SDS011;1319;52.346;13.096;2023-11-18T06:06:22;15.43;;;8.37;;
2618;SDS011;1319;52.346;13.096;2023-11-18T06:08:47;16.40;;;8.40;;
2618;SDS011;1319;52.346;13.096;2023-11-18T06:11:13;14.07;;;7.87;;
2618;SDS011;1319;52.346;13.096;2023-11-18T06:13:43;15.73;;;8.33;;
2618;SDS011;1319;52.346;13.096;2023-11-18T06:16:09;17.47;;;8.70;;
2618;SDS011;1319;52.346;13.096;2023-11-18T06:18:34;15.03;;;7.83;;
2618;SDS011;1319;52.346;13.096;2023-11-18T06:21:01;18.13;;;7.97;;
2618;SDS011;1319;52.346;13.096;2023-11-18T06:23:26;17.93;;;7.93;;
2618;SDS011;1319;52.346;13.096;2023-11-18T06:25:51;14.50;;;8.10;;
2618;SDS011;1319;52.346;13.096;2023-11-18T06:28:17;13.63;;;7.87;;
2618;SDS011;1319;52.346;13.096;2023-11-18T06:30:43;14.07;;;7.50;;
2618;SDS011;1319;52.346;13.096;2023-11-18T06:33:09;14.63;;;7.73;;
2618;SDS011;1319;52.346;13.096;2023-11-18T06:35:34;13.43;;;7.67;;
2618;SDS011;1319;52.346;13.096;2023-11-18T06:37:59;15.33;;;7.83;;
2618;SDS011;1319;52.346;13.096;2023-11-18T06:40:24;16.57;;;7.70;;
2618;SDS011;1319;52.346;13.096;2023-11-18T06:42:52;15.77;;;8.50;;
2618;SDS011;1319;52.346;13.096;2023-11-18T06:45:19;17.00;;;8.63;;
2618;SDS011;1319;52.346;13.096;2023-11-18T06:47:47;20.93;;;8.43;;
2618;SDS011;1319;52.346;13.096;2023-11-18T06:50:14;16.17;;;8.47;;
2618;SDS011;1319;52.346;13.096;2023-11-18T06:52:41;16.07;;;8.23;;
2618;SDS011;1319;52.346;13.096;2023-11-18T06:55:10;20.03;;;9.60;;
2618;SDS011;1319;52.346;13.096;2023-11-18T06:57:36;22.40;;;9.93;;
2618;SDS011;1319;52.346;13.096;2023-11-18T07:00:02;23.90;;;10.37;;
2618;SDS011;1319;52.346;13.096;2023-11-18T07:02:33;22.10;;;10.40;;
2618;SDS011;1319;52.346;13.096;2023-11-18T07:04:58;24.33;;;10.90;;
2618;SDS011;1319;52.346;13.096;2023-11-18T07:07:23;24.17;;;10.40;;
2618;SDS011;1319;52.346;13.096;2023-11-18T07:09:49;26.23;;;11.27;;
2618;SDS011;1319;52.346;13.096;2023-11-18T07:12:14;23.27;;;11.33;;
2618;SDS011;1319;52.346;13.096;2023-11-18T07:14:40;22.03;;;10.03;;
2618;SDS011;1319;52.346;13.096;2023-11-18T07:17:05;23.87;;;10.87;;
2618;SDS011;1319;52.346;13.096;2023-11-18T07:19:30;25.33;;;10.37;;
2618;SDS011;1319;52.346;13.096;2023-11-18T07:21:58;23.37;;;10.57;;
2618;SDS011;1319;52.346;13.096;2023-11-18T07:24:24;20.83;;;9.73;;
2618;SDS011;1319;52.346;13.096;2023-11-18T07:26:49;23.43;;;10.97;;
2618;SDS011;1319;52.346;13.096;2023-11-18T07:29:16;20.50;;;9.57;;
2618;SDS011;1319;52.346;13.096;2023-11-18T07:31:42;22.27;;;10.43;;
2618;SDS011;1319;52.346;13.096;2023-11-18T07:34:08;20.53;;;10.47;;
2618;SDS011;1319;52.346;13.096;2023-11-18T07:36:33;21.77;;;10.00;;
2618;SDS011;1319;52.346;13.096;2023-11-18T07:38:59;20.33;;;10.03;;
2618;SDS011;1319;52.346;13.096;2023-11-18T07:41:28;18.67;;;9.77;;
2618;SDS011;1319;52.346;13.096;2023-11-18T07:43:56;21.03;;;10.27;;
2618;SDS011;1319;52.346;13.096;2023-11-18T07:46:24;20.10;;;9.57;;
2618;SDS011;1319;52.346;13.096;2023-11-18T07:48:49;21.33;;;10.87;;
2618;SDS011;1319;52.346;13.096;2023-11-18T07:51:15;25.83;;;10.80;;
2618;SDS011;1319;52.346;13.096;2023-11-18T07:53:40;29.40;;;11.97;;
2618;SDS011;1319;52.346;13.096;2023-11-18T07:56:05;30.00;;;12.43;;
2618;SDS011;1319;52.346;13.096;2023-11-18T07:58:32;34.40;;;12.83;;
2618;SDS011;1319;52.346;13.096;2023-11-18T08:01:02;36.20;;;14.63;;
2618;SDS011;1319;52.346;13.096;2023-11-18T08:03:29;28.87;;;13.17;;
2618;SDS011;1319;52.346;13.096;2023-11-18T08:05:56;35.93;;;14.37;;
2618;SDS011;1319;52.346;13.096;2023-11-18T08:08:23;33.67;;;13.53;;
2618;SDS011;1319;52.346;13.096;2023-11-18T08:10:48;33.67;;;13.33;;
2618;SDS011;1319;52.346;13.096;2023-11-18T08:13:13;31.40;;;12.90;;
2618;SDS011;1319;52.346;13.096;2023-11-18T08:15:39;31.27;;;12.97;;
2618;SDS011;1319;52.346;13.096;2023-11-18T08:18:05;32.00;;;12.47;;
2618;SDS011;1319;52.346;13.096;2023-11-18T08:20:30;28.23;;;12.93;;
2618;SDS011;1319;52.346;13.096;2023-11-18T08:22:55;32.37;;;13.20;;
2618;SDS011;1319;52.346;13.096;2023-11-18T08:25:21;30.70;;;13.43;;
2618;SDS011;1319;52.346;13.096;2023-11-18T08:27:46;32.27;;;13.10;;
2618;SDS011;1319;52.346;13.096;2023-11-18T08:30:12;26.83;;;11.60;;
2618;SDS011;1319;52.346;13.096;2023-11-18T08:32:41;28.73;;;12.30;;
2618;SDS011;1319;52.346;13.096;2023-11-18T08:35:10;29.27;;;12.80;;
2618;SDS011;1319;52.346;13.096;2023-11-18T08:37:39;30.10;;;12.73;;
2618;SDS011;1319;52.346;13.096;2023-11-18T08:40:04;31.20;;;12.63;;
2618;SDS011;1319;52.346;13.096;2023-11-18T08:42:53;27.43;;;12.50;;
2618;SDS011;1319;52.346;13.096;2023-11-18T08:45:21;26.93;;;12.43;;
2618;SDS011;1319;52.346;13.096;2023-11-18T08:47:54;29.10;;;12.67;;
2618;SDS011;1319;52.346;13.096;2023-11-18T08:50:20;28.30;;;12.50;;
2618;SDS011;1319;52.346;13.096;2023-11-18T08:52:48;25.70;;;11.70;;
2618;SDS011;1319;52.346;13.096;2023-11-18T08:55:15;26.63;;;12.13;;
2618;SDS011;1319;52.346;13.096;2023-11-18T08:57:50;28.80;;;11.93;;
2618;SDS011;1319;52.346;13.096;2023-11-18T09:00:26;22.37;;;10.33;;
2618;SDS011;1319;52.346;13.096;2023-11-18T09:03:22;25.97;;;11.87;;
2618;SDS011;1319;52.346;13.096;2023-11-18T09:05:57;23.40;;;11.40;;
2618;SDS011;1319;52.346;13.096;2023-11-18T09:08:36;24.47;;;11.37;;
2618;SDS011;1319;52.346;13.096;2023-11-18T09:11:08;26.70;;;12.30;;
2618;SDS011;1319;52.346;13.096;2023-11-18T09:13:35;27.67;;;11.97;;
2618;SDS011;1319;52.346;13.096;2023-11-18T09:16:04;28.87;;;11.70;;
2618;SDS011;1319;52.346;13.096;2023-11-18T09:18:36;27.17;;;12.37;;
2618;SDS011;1319;52.346;13.096;2023-11-18T09:21:04;24.00;;;11.23;;
2618;SDS011;1319;52.346;13.096;2023-11-18T09:23:31;25.47;;;10.73;;
2618;SDS011;1319;52.346;13.096;2023-11-18T09:25:59;21.87;;;10.63;;
2618;SDS011;1319;52.346;13.096;2023-11-18T09:28:26;18.87;;;9.03;;
2618;SDS011;1319;52.346;13.096;2023-11-18T09:30:53;20.00;;;9.60;;
2618;SDS011;1319;52.346;13.096;2023-11-18T09:33:21;26.03;;;9.63;;
2618;SDS011;1319;52.346;13.096;2023-11-18T09:36:05;21.63;;;9.90;;
2618;SDS011;1319;52.346;13.096;2023-11-18T09:38:38;20.50;;;9.77;;
2618;SDS011;1319;52.346;13.096;2023-11-18T09:41:05;19.53;;;9.70;;
2618;SDS011;1319;52.346;13.096;2023-11-18T09:43:36;19.33;;;9.37;;
2618;SDS011;1319;52.346;13.096;2023-11-18T09:46:08;16.67;;;9.30;;
2618;SDS011;1319;52.346;13.096;2023-11-18T09:49:02;15.93;;;8.90;;
2618;SDS011;1319;52.346;13.096;2023-11-18T09:51:28;20.63;;;10.23;;
2618;SDS011;1319;52.346;13.096;2023-11-18T09:54:01;19.03;;;9.50;;
2618;SDS011;1319;52.346;13.096;2023-11-18T09:59:23;20.00;;;9.47;;
2618;SDS011;1319;52.346;13.096;2023-11-18T10:01:53;20.73;;;10.97;;
2618;SDS011;1319;52.346;13.096;2023-11-18T10:04:22;16.63;;;9.00;;
2618;SDS011;1319;52.346;13.096;2023-11-18T10:06:52;17.43;;;9.53;;
2618;SDS011;1319;52.346;13.096;2023-11-18T10:09:18;17.30;;;8.87;;
2618;SDS011;1319;52.346;13.096;2023-11-18T10:11:53;20.20;;;8.83;;
2618;SDS011;1319;52.346;13.096;2023-11-18T10:14:25;17.73;;;9.30;;
2618;SDS011;1319;52.346;13.096;2023-11-18T10:16:51;17.93;;;9.57;;
2618;SDS011;1319;52.346;13.096;2023-11-18T10:19:19;19.40;;;9.93;;
2618;SDS011;1319;52.346;13.096;2023-11-18T10:21:44;17.60;;;9.27;;
2618;SDS011;1319;52.346;13.096;2023-11-18T10:24:14;18.07;;;9.50;;
2618;SDS011;1319;52.346;13.096;2023-11-18T10:26:42;15.53;;;8.93;;
2618;SDS011;1319;52.346;13.096;2023-11-18T10:29:10;19.73;;;9.27;;
2618;SDS011;1319;52.346;13.096;2023-11-18T10:31:36;19.37;;;9.87;;
2618;SDS011;1319;52.346;13.096;2023-11-18T10:34:02;18.83;;;9.70;;
2618;SDS011;1319;52.346;13.096;2023-11-18T10:36:29;19.43;;;10.07;;
2618;SDS011;1319;52.346;13.096;2023-11-18T10:38:56;18.67;;;9.40;;
2618;SDS011;1319;52.346;13.096;2023-11-18T10:41:22;17.63;;;9.67;;
2618;SDS011;1319;52.346;13.096;2023-11-18T10:43:48;20.47;;;9.43;;
2618;SDS011;1319;52.346;13.096;2023-11-18T10:46:14;18.30;;;9.53;;
2618;SDS011;1319;52.346;13.096;2023-11-18T10:48:49;18.77;;;9.30;;
2618;SDS011;1319;52.346;13.096;2023-11-18T10:51:18;17.00;;;9.37;;
2618;SDS011;1319;52.346;13.096;2023-11-18T10:53:51;20.37;;;9.63;;
2618;SDS011;1319;52.346;13.096;2023-11-18T10:56:29;15.77;;;8.53;;
2618;SDS011;1319;52.346;13.096;2023-11-18T10:59:04;16.60;;;8.77;;
2618;SDS011;1319;52.346;13.096;2023-11-18T11:01:33;13.97;;;8.17;;
2618;SDS011;1319;52.346;13.096;2023-11-18T11:03:59;13.93;;;8.33;;
2618;SDS011;1319;52.346;13.096;2023-11-18T11:06:29;16.00;;;8.93;;
2618;SDS011;1319;52.346;13.096;2023-11-18T11:08:55;14.57;;;8.60;;
2618;SDS011;1319;52.346;13.096;2023-11-18T11:11:23;15.73;;;8.33;;
2618;SDS011;1319;52.346;13.096;2023-11-18T11:13:54;16.07;;;8.93;;
2618;SDS011;1319;52.346;13.096;2023-11-18T11:16:21;18.80;;;8.80;;
2618;SDS011;1319;52.346;13.096;2023-11-18T11:18:50;14.63;;;8.37;;
2618;SDS011;1319;52.346;13.096;2023-11-18T11:21:27;13.57;;;8.40;;
2618;SDS011;1319;52.346;13.096;2023-11-18T11:23:55;17.30;;;9.00;;
2618;SDS011;1319;52.346;13.096;2023-11-18T11:29:01;15.80;;;8.60;;
2618;SDS011;1319;52.346;13.096;2023-11-18T11:31:40;15.60;;;9.13;;
2618;SDS011;1319;52.346;13.096;2023-11-18T11:34:08;14.80;;;8.30;;
2618;SDS011;1319;52.346;13.096;2023-11-18T11:36:43;15.33;;;8.67;;
2618;SDS011;1319;52.346;13.096;2023-11-18T11:39:11;16.07;;;9.00;;
2618;SDS011;1319;52.346;13.096;2023-11-18T11:41:46;16.70;;;8.60;;
2618;SDS011;1319;52.346;13.096;2023-11-18T11:44:15;15.40;;;9.20;;
2618;SDS011;1319;52.346;13.096;2023-11-18T11:46:41;14.97;;;8.70;;
2618;SDS011;1319;52.346;13.096;2023-11-18T11:49:07;14.37;;;8.30;;
2618;SDS011;1319;52.346;13.096;2023-11-18T11:54:11;13.00;;;8.37;;
2618;SDS011;1319;52.346;13.096;2023-11-18T11:56:44;12.33;;;8.47;;
2618;SDS011;1319;52.346;13.096;2023-11-18T11:59:12;11.93;;;8.33;;
2618;SDS011;1319;52.346;13.096;2023-11-18T12:01:37;15.47;;;8.73;;
2618;SDS011;1319;52.346;13.096;2023-11-18T12:04:03;14.63;;;8.00;;
2618;SDS011;1319;52.346;13.096;2023-11-18T12:06:32;12.87;;;8.73;;
2618;SDS011;1319;52.346;13.096;2023-11-18T12:08:58;12.60;;;7.53;;
2618;SDS011;1319;52.346;13.096;2023-11-18T12:11:24;12.00;;;7.97;;
2618;SDS011;1319;52.346;13.096;2023-11-18T12:14:08;12.00;;;7.70;;
2618;SDS011;1319;52.346;13.096;2023-11-18T12:19:29;12.10;;;7.77;;
2618;SDS011;1319;52.346;13.096;2023-11-18T12:21:55;10.90;;;6.83;;
2618;SDS011;1319;52.346;13.096;2023-11-18T12:24:20;9.97;;;7.07;;
2618;SDS011;1319;52.346;13.096;2023-11-18T12:26:47;11.93;;;7.00;;
2618;SDS011;1319;52.346;13.096;2023-11-18T12:29:30;10.93;;;7.07;;
2618;SDS011;1319;52.346;13.096;2023-11-18T12:31:56;12.27;;;7.23;;
2618;SDS011;1319;52.346;13.096;2023-11-18T12:34:22;10.60;;;7.00;;
2618;SDS011;1319;52.346;13.096;2023-11-18T12:36:56;13.57;;;7.30;;
2618;SDS011;1319;52.346;13.096;2023-11-18T12:42:05;11.03;;;7.33;;
2618;SDS011;1319;52.346;13.096;2023-11-18T12:47:24;10.97;;;7.17;;
2618;SDS011;1319;52.346;13.096;2023-11-18T12:49:53;11.20;;;7.30;;
2618;SDS011;1319;52.346;13.096;2023-11-18T12:52:21;15.57;;;8.00;;
2618;SDS011;1319;52.346;13.096;2023-11-18T12:54:47;12.83;;;7.50;;
2618;SDS011;1319;52.346;13.096;2023-11-18T12:57:22;13.60;;;8.23;;
2618;SDS011;1319;52.346;13.096;2023-11-18T12:59:51;11.47;;;7.30;;
2618;SDS011;1319;52.346;13.096;2023-11-18T13:02:16;11.93;;;7.60;;
2618;SDS011;1319;52.346;13.096;2023-11-18T13:04:45;11.37;;;7.20;;
2618;SDS011;1319;52.346;13.096;2023-11-18T13:07:13;12.80;;;7.80;;
2618;SDS011;1319;52.346;13.096;2023-11-18T13:09:38;11.00;;;7.03;;
2618;SDS011;1319;52.346;13.096;2023-11-18T13:12:06;11.13;;;7.33;;
2618;SDS011;1319;52.346;13.096;2023-11-18T13:14:34;11.93;;;6.90;;
2618;SDS011;1319;52.346;13.096;2023-11-18T13:17:02;10.63;;;6.80;;
2618;SDS011;1319;52.346;13.096;2023-11-18T13:19:30;11.43;;;6.23;;
2618;SDS011;1319;52.346;13.096;2023-11-18T13:22:06;8.87;;;5.83;;
2618;SDS011;1319;52.346;13.096;2023-11-18T13:24:35;15.37;;;6.80;;
2618;SDS011;1319;52.346;13.096;2023-11-18T13:27:01;9.27;;;6.57;;
2618;SDS011;1319;52.346;13.096;2023-11-18T13:29:33;10.97;;;6.93;;
2618;SDS011;1319;52.346;13.096;2023-11-18T13:31:59;8.63;;;6.13;;
2618;SDS011;1319;52.346;13.096;2023-11-18T13:34:28;9.70;;;6.07;;
2618;SDS011;1319;52.346;13.096;2023-11-18T13:36:55;9.00;;;6.30;;
2618;SDS011;1319;52.346;13.096;2023-11-18T13:39:20;9.83;;;6.80;;
2618;SDS011;1319;52.346;13.096;2023-11-18T13:41:48;12.03;;;7.07;;
2618;SDS011;1319;52.346;13.096;2023-11-18T13:44:30;12.03;;;6.27;;
2618;SDS011;1319;52.346;13.096;2023-11-18T13:46:59;9.53;;;6.77;;
2618;SDS011;1319;52.346;13.096;2023-11-18T13:49:27;8.20;;;5.40;;
2618;SDS011;1319;52.346;13.096;2023-11-18T13:51:52;9.33;;;6.13;;
2618;SDS011;1319;52.346;13.096;2023-11-18T13:54:18;8.53;;;6.00;;
2618;SDS011;1319;52.346;13.096;2023-11-18T13:56:43;11.20;;;6.90;;
2618;SDS011;1319;52.346;13.096;2023-11-18T13:59:09;8.60;;;5.90;;
2618;SDS011;1319;52.346;13.096;2023-11-18T14:01:34;9.10;;;6.30;;
2618;SDS011;1319;52.346;13.096;2023-11-18T14:04:00;10.43;;;6.70;;
2618;SDS011;1319;52.346;13.096;2023-11-18T14:06:29;10.63;;;6.53;;
2618;SDS011;1319;52.346;13.096;2023-11-18T14:08:55;9.77;;;6.60;;
2618;SDS011;1319;52.346;13.096;2023-11-18T14:11:20;10.33;;;6.77;;
2618;SDS011;1319;52.346;13.096;2023-11-18T14:13:46;11.70;;;7.43;;
2618;SDS011;1319;52.346;13.096;2023-11-18T14:16:12;11.57;;;6.73;;
2618;SDS011;1319;52.346;13.096;2023-11-18T14:18:37;9.30;;;6.97;;
2618;SDS011;1319;52.346;13.096;2023-11-18T14:21:06;13.93;;;8.07;;
2618;SDS011;1319;52.346;13.096;2023-11-18T14:23:31;14.73;;;8.17;;
2618;SDS011;1319;52.346;13.096;2023-11-18T14:25:56;11.63;;;7.20;;
2618;SDS011;1319;52.346;13.096;2023-11-18T14:28:22;15.50;;;7.93;;
2618;SDS011;1319;52.346;13.096;2023-11-18T14:30:51;12.13;;;7.70;;
2618;SDS011;1319;52.346;13.096;2023-11-18T14:33:16;12.87;;;7.93;;
2618;SDS011;1319;52.346;13.096;2023-11-18T14:35:43;12.40;;;7.80;;
2618;SDS011;1319;52.346;13.096;2023-11-18T14:38:09;16.80;;;9.90;;
2618;SDS011;1319;52.346;13.096;2023-11-18T14:40:35;15.23;;;9.07;;
2618;SDS011;1319;52.346;13.096;2023-11-18T14:43:01;16.13;;;9.90;;
2618;SDS011;1319;52.346;13.096;2023-11-18T14:45:27;17.27;;;10.13;;
2618;SDS011;1319;52.346;13.096;2023-11-18T14:47:53;19.77;;;10.03;;
2618;SDS011;1319;52.346;13.096;2023-11-18T14:50:21;16.60;;;9.93;;
2618;SDS011;1319;52.346;13.096;2023-11-18T14:52:46;15.93;;;9.50;;
2618;SDS011;1319;52.346;13.096;2023-11-18T14:55:12;14.70;;;8.87;;
2618;SDS011;1319;52.346;13.096;2023-11-18T14:57:38;14.77;;;8.70;;
2618;SDS011;1319;52.346;13.096;2023-11-18T15:00:04;16.17;;;9.40;;
2618;SDS011;1319;52.346;13.096;2023-11-18T15:02:43;16.47;;;8.57;;
2618;SDS011;1319;52.346;13.096;2023-11-18T15:05:09;14.90;;;9.23;;